createdAt,value
2022-10-07T07:42:24.026Z,53.657001
2022-10-07T07:43:33.596Z,53.719002
2022-10-07T07:44:43.193Z,53.743
2022-10-07T07:45:52.803Z,53.855999
2022-10-07T07:47:00.508Z,53.973999
2022-10-07T07:48:08.125Z,54.105999
2022-10-07T07:49:18.708Z,54.238998
2022-10-07T07:50:27.273Z,54.293999
2022-10-07T07:51:35.836Z,54.27
2022-10-07T07:52:44.395Z,54.212002
2022-10-07T07:53:53.008Z,54.212002
2022-10-07T07:55:02.571Z,54.140999
2022-10-07T07:56:12.160Z,54.104
2022-10-07T07:57:20.706Z,54.081001
2022-10-07T07:58:30.324Z,54.043999
2022-10-07T07:59:39.896Z,54.067001
2022-10-07T08:00:48.448Z,54.208
2022-10-07T08:01:57.006Z,54.158001
2022-10-07T08:03:05.580Z,54.200001
2022-10-07T08:04:15.196Z,54.183998
2022-10-07T08:05:24.726Z,54.102001
2022-10-07T08:06:32.250Z,54.069
2022-10-07T08:07:41.808Z,53.959999
2022-10-07T08:08:50.379Z,54.000999
2022-10-07T08:09:58.943Z,54.035999
2022-10-07T08:11:08.505Z,53.945
2022-10-07T08:12:17.068Z,53.999001
2022-10-07T08:13:26.632Z,53.983002
2022-10-07T08:14:34.217Z,53.901001
2022-10-07T08:15:41.856Z,53.778
2022-10-07T08:16:51.319Z,53.702
2022-10-07T08:17:59.914Z,53.716999
2022-10-07T08:19:08.494Z,53.757
2022-10-07T08:20:18.050Z,53.810001
2022-10-07T08:21:26.621Z,53.759998
2022-10-07T08:22:36.159Z,53.737999
2022-10-07T08:23:44.729Z,53.811001
2022-10-07T08:24:52.295Z,54.347
2022-10-07T08:26:01.857Z,54.342999
2022-10-07T08:27:10.461Z,54.179001
2022-10-07T08:28:19.116Z,54.132
2022-10-07T08:29:27.641Z,54.067001
2022-10-07T08:30:37.333Z,53.945999
2022-10-07T08:31:46.743Z,53.912998
2022-10-07T08:32:57.834Z,53.890999
2022-10-07T08:34:02.868Z,53.868999
2022-10-07T08:35:12.420Z,53.904999
2022-10-07T08:36:20.963Z,53.897999
2022-10-07T08:37:29.523Z,53.987999
2022-10-07T08:38:38.070Z,54.028
2022-10-07T08:39:46.631Z,53.974998
2022-10-07T08:40:56.239Z,53.917999
2022-10-07T08:42:03.773Z,53.867001
2022-10-07T08:43:11.340Z,53.797001
2022-10-07T08:44:20.902Z,53.717999
2022-10-07T08:45:29.444Z,53.801998
2022-10-07T08:46:39.281Z,53.887001
2022-10-07T08:47:49.077Z,53.925999
2022-10-07T08:48:57.348Z,53.879002
2022-10-07T08:50:06.906Z,53.867001
2022-10-07T08:51:17.444Z,53.813999
2022-10-07T08:52:24.977Z,53.769001
2022-10-07T08:53:34.528Z,53.715
2022-10-07T08:54:44.090Z,53.769001
2022-10-07T08:55:53.638Z,53.806
2022-10-07T08:57:02.192Z,53.832001
2022-10-07T08:58:10.722Z,53.846001
2022-10-07T08:59:20.275Z,53.824001
2022-10-07T09:00:27.820Z,53.827999
2022-10-07T09:01:36.414Z,53.734001
2022-10-07T09:02:45.992Z,53.793999
2022-10-07T09:03:55.520Z,53.779999
2022-10-07T09:05:05.114Z,53.758999
2022-10-07T09:06:14.664Z,53.812
2022-10-07T09:07:23.216Z,53.643002
2022-10-07T09:08:32.796Z,53.486
2022-10-07T09:09:41.362Z,53.527
2022-10-07T09:10:48.931Z,53.521
2022-10-07T09:11:58.494Z,53.507
2022-10-07T09:13:07.078Z,53.495998
2022-10-07T09:14:15.746Z,53.507999
2022-10-07T09:15:24.332Z,53.601002
2022-10-07T09:16:32.858Z,53.355
2022-10-07T09:17:42.416Z,53.234001
2022-10-07T09:18:49.977Z,53.358002
2022-10-07T09:19:57.543Z,53.502998
2022-10-07T09:21:07.219Z,53.437
2022-10-07T09:22:16.773Z,53.424999
2022-10-07T09:23:25.385Z,53.368
2022-10-07T09:24:34.138Z,53.304001
2022-10-07T09:25:42.824Z,53.259998
2022-10-07T09:26:53.339Z,53.191002
2022-10-07T09:28:01.992Z,53.242001
2022-10-07T09:29:09.656Z,53.363998
2022-10-07T09:30:19.240Z,53.393002
2022-10-07T09:31:27.863Z,53.305
2022-10-07T09:32:37.348Z,53.323002
2022-10-07T09:33:45.930Z,53.331001
2022-10-07T09:34:54.495Z,53.247002
2022-10-07T09:36:04.024Z,53.165001
2022-10-07T09:37:11.574Z,53.158001
2022-10-07T09:38:18.124Z,53.068001
2022-10-07T09:39:27.651Z,52.911999
2022-10-07T09:40:36.234Z,52.912998
2022-10-07T09:41:44.779Z,52.882999
2022-10-07T09:42:52.343Z,52.875
2022-10-07T09:44:01.892Z,52.881001
2022-10-07T09:45:09.447Z,53.014
2022-10-07T09:46:19.045Z,53.027
2022-10-07T09:47:27.532Z,52.987999
2022-10-07T09:48:36.074Z,52.988998
2022-10-07T09:49:44.627Z,52.976002
2022-10-07T09:50:54.204Z,52.868999
2022-10-07T09:52:03.708Z,52.648998
2022-10-07T09:53:12.242Z,52.612
2022-10-07T09:54:19.769Z,52.623001
2022-10-07T09:55:29.318Z,52.541
2022-10-07T09:56:37.835Z,52.652
2022-10-07T09:57:46.911Z,52.673
2022-10-07T09:58:54.911Z,52.868999
2022-10-07T10:00:03.448Z,52.946999
2022-10-07T10:01:12.991Z,53.054001
2022-10-07T10:02:21.634Z,53.241001
2022-10-07T10:03:30.160Z,53.276001
2022-10-07T10:04:39.642Z,53.227001
2022-10-07T10:05:48.193Z,53.238998
2022-10-07T10:06:57.780Z,53.067001
2022-10-07T10:08:07.304Z,52.910999
2022-10-07T10:09:20.101Z,52.810001
2022-10-07T10:10:26.381Z,52.873001
2022-10-07T10:11:34.927Z,53.036999
2022-10-07T10:12:43.742Z,53.137001
2022-10-07T10:13:52.994Z,52.814999
2022-10-07T10:15:01.527Z,52.765999
2022-10-07T10:16:10.103Z,52.743999
2022-10-07T10:17:18.636Z,52.743999
2022-10-07T10:18:27.144Z,52.717999
2022-10-07T10:19:37.381Z,52.659
2022-10-07T10:20:44.215Z,52.632999
2022-10-07T10:21:51.747Z,52.620998
2022-10-07T10:23:01.323Z,52.611
2022-10-07T10:24:10.831Z,52.709999
2022-10-07T10:25:19.372Z,52.646
2022-10-07T10:26:32.666Z,52.625999
2022-10-07T10:27:36.422Z,52.648998
2022-10-07T10:28:45.966Z,52.389999
2022-10-07T10:29:54.498Z,52.377998
2022-10-07T10:31:03.079Z,52.500999
2022-10-07T10:32:12.569Z,52.612999
2022-10-07T10:33:21.099Z,52.671001
2022-10-07T10:34:29.627Z,52.595001
2022-10-07T10:35:38.159Z,52.516998
2022-10-07T10:36:46.678Z,52.589001
2022-10-07T10:37:56.211Z,52.546001
2022-10-07T10:39:04.768Z,52.561001
2022-10-07T10:40:13.288Z,52.480999
2022-10-07T10:41:23.822Z,52.522999
2022-10-07T10:42:32.351Z,52.459
2022-10-07T10:43:40.881Z,52.493
2022-10-07T10:44:49.445Z,52.472
2022-10-07T10:45:57.974Z,52.297001
2022-10-07T10:47:07.591Z,52.316002
2022-10-07T10:48:16.050Z,52.411999
2022-10-07T10:49:23.585Z,52.394001
2022-10-07T10:50:33.145Z,52.457001
2022-10-07T10:51:41.682Z,52.452999
2022-10-07T10:52:51.223Z,52.558998
2022-10-07T10:53:59.833Z,52.59
2022-10-07T10:55:09.495Z,52.544998
2022-10-07T10:56:19.132Z,52.481998
2022-10-07T10:57:26.724Z,52.548
2022-10-07T10:58:34.288Z,52.598999
2022-10-07T10:59:44.033Z,52.636002
2022-10-07T11:00:55.279Z,52.679001
2022-10-07T11:02:03.222Z,52.536999
2022-10-07T11:03:12.788Z,52.342999
2022-10-07T11:04:22.245Z,52.324001
2022-10-07T11:05:31.810Z,52.301998
2022-10-07T11:06:39.358Z,52.016998
2022-10-07T11:07:46.878Z,51.772999
2022-10-07T11:08:56.422Z,51.278999
2022-10-07T11:10:04.970Z,51.516998
2022-10-07T11:11:14.531Z,51.645
2022-10-07T11:12:24.954Z,51.668999
2022-10-07T11:13:32.589Z,51.493
2022-10-07T11:14:42.238Z,51.387001
2022-10-07T11:15:50.781Z,51.144001
2022-10-07T11:16:59.301Z,51.279999
2022-10-07T11:18:08.852Z,51.220001
2022-10-07T11:19:18.390Z,51.054001
2022-10-07T11:20:26.925Z,50.764
2022-10-07T11:21:35.451Z,50.792999
2022-10-07T11:22:44.295Z,50.612999
2022-10-07T11:23:53.510Z,50.393002
2022-10-07T11:25:00.058Z,50.205002
2022-10-07T11:26:07.603Z,50.518002
2022-10-07T11:27:17.216Z,50.592999
2022-10-07T11:28:26.777Z,50.669998
2022-10-07T11:29:36.289Z,50.737
2022-10-07T11:30:45.845Z,50.622002
2022-10-07T11:31:54.353Z,50.345001
2022-10-07T11:33:03.925Z,50.352001
2022-10-07T11:34:12.464Z,50.355999
2022-10-07T11:35:21.066Z,50.305
2022-10-07T11:36:29.611Z,50.243
2022-10-07T11:37:39.151Z,50.027
2022-10-07T11:38:47.712Z,49.897999
2022-10-07T11:39:56.267Z,49.709
2022-10-07T11:41:04.805Z,49.820999
2022-10-07T11:42:12.357Z,49.644001
2022-10-07T11:43:21.954Z,49.457001
2022-10-07T11:44:31.514Z,49.341
2022-10-07T11:45:40.072Z,49.242001
2022-10-07T11:46:49.631Z,49.188
2022-10-07T11:47:58.150Z,49.147999
2022-10-07T11:49:06.727Z,48.959999
2022-10-07T11:50:15.271Z,48.990002
2022-10-07T11:51:23.822Z,49.060001
2022-10-07T11:52:43.289Z,48.993999
2022-10-07T11:53:42.882Z,49.018002
2022-10-07T11:54:51.466Z,49.006001
2022-10-07T11:56:00.008Z,49.014
2022-10-07T11:57:08.566Z,48.728001
2022-10-07T11:58:18.107Z,48.687
2022-10-07T11:59:25.704Z,48.613998
2022-10-07T12:00:33.229Z,48.632999
2022-10-07T12:01:42.816Z,48.742001
2022-10-07T12:02:51.596Z,48.613998
2022-10-07T12:03:59.888Z,48.569
2022-10-07T12:05:09.478Z,48.575001
2022-10-07T12:06:18.035Z,48.587002
2022-10-07T12:07:27.631Z,48.398998
2022-10-07T12:08:35.196Z,48.493
2022-10-07T12:09:42.789Z,48.421001
2022-10-07T12:10:52.347Z,48.469002
2022-10-07T12:12:01.905Z,48.312
2022-10-07T12:13:11.450Z,48.292999
2022-10-07T12:14:20.017Z,48.212002
2022-10-07T12:15:29.578Z,48.132
2022-10-07T12:16:39.177Z,48.111
2022-10-07T12:17:47.465Z,48.044998
2022-10-07T12:18:55.282Z,48.039001
2022-10-07T12:20:04.942Z,48.151001
2022-10-07T12:21:13.391Z,48.028999
2022-10-07T12:22:21.947Z,48.022999
2022-10-07T12:23:31.511Z,47.969002
2022-10-07T12:24:39.107Z,47.866001
2022-10-07T12:25:48.671Z,47.824001
2022-10-07T12:26:56.204Z,47.818001
2022-10-07T12:28:03.768Z,47.737999
2022-10-07T12:29:13.278Z,47.696999
2022-10-07T12:30:21.813Z,47.648998
2022-10-07T12:31:31.447Z,47.807999
2022-10-07T12:32:40.912Z,47.813999
2022-10-07T12:33:50.510Z,47.796001
2022-10-07T12:35:00.050Z,47.882
2022-10-07T12:36:08.587Z,47.778
2022-10-07T12:37:16.126Z,47.682999
2022-10-07T12:38:25.674Z,47.632999
2022-10-07T12:39:34.225Z,47.537998
2022-10-07T12:40:42.757Z,47.486
2022-10-07T12:41:51.295Z,47.467999
2022-10-07T12:43:00.834Z,47.418999
2022-10-07T12:44:10.428Z,47.332001
2022-10-07T12:45:17.971Z,47.242001
2022-10-07T12:46:25.515Z,47.042
2022-10-07T12:47:35.095Z,46.988998
2022-10-07T12:48:44.782Z,47.066002
2022-10-07T12:49:52.322Z,46.960999
2022-10-07T12:51:00.861Z,47.094002
2022-10-07T12:52:09.402Z,47.105999
2022-10-07T12:53:18.950Z,47.082001
2022-10-07T12:54:26.514Z,46.998001
2022-10-07T12:55:35.064Z,46.908001
2022-10-07T12:56:44.619Z,46.685001
2022-10-07T12:57:53.184Z,46.644001
2022-10-07T12:59:01.744Z,46.793999
2022-10-07T13:00:10.282Z,46.834999
2022-10-07T13:01:19.909Z,46.759998
2022-10-07T13:02:29.515Z,46.610001
2022-10-07T13:03:37.971Z,46.695
2022-10-07T13:04:46.495Z,46.622002
2022-10-07T13:05:56.074Z,46.466
2022-10-07T13:07:04.626Z,46.389
2022-10-07T13:08:14.187Z,46.257
2022-10-07T13:09:22.766Z,46.382999
2022-10-07T13:10:31.285Z,46.321999
2022-10-07T13:11:44.354Z,46.43
2022-10-07T13:12:51.391Z,46.263
2022-10-07T13:13:58.923Z,46.298
2022-10-07T13:15:08.483Z,46.263
2022-10-07T13:16:17.109Z,46.244999
2022-10-07T13:17:25.612Z,46.327999
2022-10-07T13:18:35.203Z,46.373001
2022-10-07T13:19:44.753Z,46.384998
2022-10-07T13:20:54.282Z,46.379002
2022-10-07T13:22:02.823Z,46.212002
2022-10-07T13:23:10.351Z,46.223
2022-10-07T13:24:19.913Z,46.229
2022-10-07T13:25:28.474Z,46.223
2022-10-07T13:26:37.016Z,46.223
2022-10-07T13:27:45.599Z,46.293999
2022-10-07T13:28:54.154Z,46.349998
2022-10-07T13:30:03.709Z,46.355
2022-10-07T13:31:11.330Z,46.283001
2022-10-07T13:32:19.787Z,46.307999
2022-10-07T13:33:29.340Z,46.373001
2022-10-07T13:34:37.864Z,46.384998
2022-10-07T13:35:47.486Z,46.403
2022-10-07T13:36:56.990Z,46.493999
2022-10-07T13:38:04.514Z,46.506001
2022-10-07T13:39:12.057Z,46.541
2022-10-07T13:40:21.606Z,46.723
2022-10-07T13:41:30.223Z,46.655998
2022-10-07T13:42:38.742Z,46.661999
2022-10-07T13:43:47.356Z,46.487999
2022-10-07T13:44:55.901Z,46.638
2022-10-07T13:46:05.545Z,46.613998
2022-10-07T13:47:14.021Z,46.435001
2022-10-07T13:48:22.561Z,46.289001
2022-10-07T13:49:32.131Z,46.334
2022-10-07T13:50:41.708Z,46.292999
2022-10-07T13:51:54.114Z,46.34
2022-10-07T13:53:00.841Z,46.418999
2022-10-07T13:54:09.391Z,46.460999
2022-10-07T13:55:18.941Z,46.383999
2022-10-07T13:56:27.475Z,46.401001
2022-10-07T13:57:35.034Z,46.509998
2022-10-07T13:58:44.633Z,46.611
2022-10-07T13:59:53.199Z,46.504002
2022-10-07T14:01:02.783Z,46.563
2022-10-07T14:02:11.311Z,46.554001
2022-10-07T14:03:19.849Z,46.609001
2022-10-07T14:04:29.390Z,46.667999
2022-10-07T14:05:38.955Z,46.632999
2022-10-07T14:06:46.508Z,46.692001
2022-10-07T14:07:56.087Z,46.700001
2022-10-07T14:09:05.622Z,46.655998
2022-10-07T14:10:14.182Z,46.650002
2022-10-07T14:11:23.750Z,46.650002
2022-10-07T14:12:33.299Z,46.435001
2022-10-07T14:13:42.869Z,46.338001
2022-10-07T14:14:50.398Z,46.504002
2022-10-07T14:15:57.971Z,46.563999
2022-10-07T14:17:07.518Z,46.617001
2022-10-07T14:18:16.102Z,46.731998
2022-10-07T14:19:24.695Z,46.775002
2022-10-07T14:20:33.226Z,46.799
2022-10-07T14:21:41.779Z,46.834
2022-10-07T14:22:50.341Z,46.933998
2022-10-07T14:23:57.890Z,47.042999
2022-10-07T14:25:06.392Z,47.175999
2022-10-07T14:26:15.941Z,47.249001
2022-10-07T14:27:24.477Z,47.278999
2022-10-07T14:28:33.143Z,47.326
2022-10-07T14:29:41.628Z,47.452999
2022-10-07T14:30:54.903Z,47.441002
2022-10-07T14:32:00.694Z,47.400002
2022-10-07T14:33:09.280Z,47.435001
2022-10-07T14:34:18.902Z,47.402
2022-10-07T14:35:28.438Z,47.431999
2022-10-07T14:36:36.996Z,47.528999
2022-10-07T14:37:45.620Z,47.626999
2022-10-07T14:38:55.167Z,47.512001
2022-10-07T14:40:04.743Z,47.426998
2022-10-07T14:41:14.319Z,47.518002
2022-10-07T14:42:21.831Z,47.382999
2022-10-07T14:43:29.431Z,47.418999
2022-10-07T14:44:38.962Z,47.389
2022-10-07T14:45:47.609Z,47.431
2022-10-07T14:46:56.129Z,47.459999
2022-10-07T14:48:04.730Z,47.528
2022-10-07T14:49:13.427Z,47.563999
2022-10-07T14:50:22.970Z,47.617001
2022-10-07T14:51:31.514Z,47.615002
2022-10-07T14:52:44.696Z,47.674999
2022-10-07T14:53:50.665Z,47.657001
2022-10-07T14:55:00.271Z,47.674999
2022-10-07T14:56:09.978Z,47.562
2022-10-07T14:57:18.428Z,47.651001
2022-10-07T14:58:26.990Z,47.574001
2022-10-07T14:59:36.636Z,47.534
2022-10-07T15:00:45.209Z,47.588001
2022-10-07T15:01:53.774Z,47.612
2022-10-07T15:03:03.329Z,47.625
2022-10-07T15:04:12.962Z,47.664001
2022-10-07T15:05:21.529Z,47.766998
2022-10-07T15:06:30.040Z,47.888
2022-10-07T15:07:38.644Z,47.992001
2022-10-07T15:08:48.258Z,47.952
2022-10-07T15:09:56.805Z,47.939999
2022-10-07T15:11:05.330Z,48
2022-10-07T15:12:14.873Z,48.068001
2022-10-07T15:13:24.403Z,48.145
2022-10-07T15:14:34.024Z,48.213001
2022-10-07T15:15:42.610Z,48.323002
2022-10-07T15:16:51.183Z,48.376999
2022-10-07T15:18:00.727Z,48.424999
2022-10-07T15:19:08.282Z,48.528999
2022-10-07T15:20:15.884Z,48.558998
2022-10-07T15:21:25.430Z,48.591
2022-10-07T15:22:33.969Z,48.679001
2022-10-07T15:23:43.658Z,48.738998
2022-10-07T15:24:53.207Z,48.806999
2022-10-07T15:26:01.890Z,48.890999
2022-10-07T15:27:11.426Z,48.929001
2022-10-07T15:28:19.061Z,48.983002
2022-10-07T15:29:28.607Z,49.051998
2022-10-07T15:30:39.450Z,49.076
2022-10-07T15:31:47.720Z,49.112
2022-10-07T15:32:57.359Z,49.153999
2022-10-07T15:34:05.915Z,49.139999
2022-10-07T15:35:14.437Z,49.195
2022-10-07T15:36:22.004Z,49.230999
2022-10-07T15:37:31.625Z,49.263
2022-10-07T15:38:40.203Z,49.305
2022-10-07T15:39:48.794Z,49.334999
2022-10-07T15:40:58.338Z,49.382
2022-10-07T15:42:07.916Z,49.411999
2022-10-07T15:43:17.641Z,49.411999
2022-10-07T15:44:26.233Z,49.456001
2022-10-07T15:45:33.833Z,49.450001
2022-10-07T15:46:43.526Z,49.486
2022-10-07T15:47:53.818Z,49.528
2022-10-07T15:49:01.711Z,49.546001
2022-10-07T15:50:10.275Z,49.546001
2022-10-07T15:51:19.856Z,49.587002
2022-10-07T15:52:29.443Z,49.605
2022-10-07T15:53:38.000Z,49.631001
2022-10-07T15:54:45.612Z,49.625
2022-10-07T15:55:55.213Z,49.696999
2022-10-07T15:57:03.735Z,49.754002
